createdAt,value
2018-06-18T00:02:31.825Z,8.47
2018-06-18T00:05:03.676Z,8.13
2018-06-18T00:07:35.574Z,8.43
2018-06-18T00:10:07.377Z,9.00
2018-06-18T00:12:39.360Z,7.70
2018-06-18T00:15:11.277Z,8.70
2018-06-18T00:17:43.197Z,9.63
2018-06-18T00:20:15.028Z,10.37
2018-06-18T00:22:46.976Z,9.23
2018-06-18T00:25:18.840Z,9.53
2018-06-18T00:27:50.701Z,12.40
2018-06-18T00:30:22.071Z,11.80
2018-06-18T00:32:53.560Z,11.47
2018-06-18T00:35:26.097Z,11.87
2018-06-18T00:37:57.705Z,11.63
2018-06-18T00:40:29.493Z,10.87
2018-06-18T00:43:01.170Z,11.17
2018-06-18T00:45:32.356Z,11.27
2018-06-18T00:48:03.758Z,12.90
2018-06-18T00:50:35.442Z,13.13
2018-06-18T00:53:07.148Z,13.80
2018-06-18T00:55:55.581Z,13.97
2018-06-18T00:58:27.241Z,14.40
2018-06-18T01:00:58.993Z,14.43
2018-06-18T01:03:30.773Z,15.50
2018-06-18T01:06:02.666Z,15.10
2018-06-18T01:08:34.324Z,14.80
2018-06-18T01:11:05.920Z,15.10
2018-06-18T01:13:37.549Z,13.90
2018-06-18T01:16:12.204Z,13.77
2018-06-18T01:18:43.900Z,13.40
2018-06-18T01:21:15.520Z,14.07
2018-06-18T01:23:58.140Z,12.87
2018-06-18T01:26:29.821Z,11.60
2018-06-18T01:29:01.468Z,11.63
2018-06-18T01:31:33.064Z,10.37
2018-06-18T01:34:07.680Z,9.40
2018-06-18T01:36:39.280Z,9.10
2018-06-18T01:39:10.945Z,9.00
2018-06-18T01:41:42.701Z,8.40
2018-06-18T01:44:14.521Z,6.60
2018-06-18T01:46:46.124Z,8.03
2018-06-18T01:49:17.848Z,7.10
2018-06-18T01:51:49.473Z,7.53
2018-06-18T01:54:21.071Z,8.10
2018-06-18T01:56:52.679Z,7.40
2018-06-18T01:59:24.281Z,8.13
2018-06-18T02:01:56.677Z,7.47
2018-06-18T02:04:28.664Z,7.17
2018-06-18T02:07:00.188Z,6.70
2018-06-18T02:09:31.808Z,6.80
2018-06-18T02:12:03.388Z,6.27
2018-06-18T02:14:34.940Z,6.00
2018-06-18T02:17:06.559Z,5.90
2018-06-18T02:19:39.080Z,6.10
2018-06-18T02:22:10.652Z,5.90
2018-06-18T02:24:42.343Z,6.20
2018-06-18T02:27:16.864Z,7.50
2018-06-18T02:29:53.773Z,5.63
2018-06-18T02:32:30.432Z,5.63
2018-06-18T02:35:07.185Z,6.37
2018-06-18T02:38:46.557Z,5.97
2018-06-18T02:41:18.184Z,6.90
2018-06-18T02:43:49.777Z,6.43
2018-06-18T02:46:21.405Z,6.27
2018-06-18T02:48:53.448Z,6.33
2018-06-18T02:51:25.199Z,7.90
2018-06-18T02:53:56.818Z,5.87
2018-06-18T02:56:40.949Z,7.50
2018-06-18T02:59:12.457Z,6.33
2018-06-18T03:01:44.129Z,7.53
2018-06-18T03:04:15.744Z,8.33
2018-06-18T03:06:47.316Z,7.97
2018-06-18T03:09:18.907Z,6.90
2018-06-18T03:11:50.572Z,6.87
2018-06-18T03:14:22.325Z,7.63
2018-06-18T03:16:53.976Z,7.10
2018-06-18T03:19:30.779Z,7.90
2018-06-18T03:22:07.476Z,8.17
2018-06-18T03:24:44.205Z,7.73
2018-06-18T03:27:20.920Z,7.63
2018-06-18T03:29:52.487Z,8.20
2018-06-18T03:32:24.060Z,8.70
2018-06-18T03:34:55.621Z,8.43
2018-06-18T03:37:27.741Z,8.37
2018-06-18T03:39:59.408Z,7.50
2018-06-18T03:42:31.245Z,7.47
2018-06-18T03:45:23.223Z,6.83
2018-06-18T03:47:56.656Z,7.33
2018-06-18T03:50:28.464Z,7.17
2018-06-18T03:53:00.133Z,7.33
2018-06-18T03:55:40.220Z,6.80
2018-06-18T03:58:11.496Z,6.40
2018-06-18T04:01:32.612Z,7.63
2018-06-18T04:04:12.373Z,7.53
2018-06-18T04:06:49.046Z,5.60
2018-06-18T04:09:25.897Z,6.50
2018-06-18T04:12:08.833Z,5.93
2018-06-18T04:14:40.521Z,6.10
2018-06-18T04:17:12.396Z,6.27
2018-06-18T04:19:44.000Z,7.10
2018-06-18T04:22:15.604Z,6.20
2018-06-18T04:24:47.293Z,5.77
2018-06-18T04:27:19.020Z,5.60
2018-06-18T04:29:50.831Z,5.07
2018-06-18T04:32:22.680Z,6.80
2018-06-18T04:34:58.620Z,5.17
2018-06-18T04:37:30.278Z,4.10
2018-06-18T04:40:01.969Z,4.80
2018-06-18T04:42:38.673Z,5.97
2018-06-18T04:45:15.350Z,3.93
2018-06-18T04:47:52.092Z,3.10
2018-06-18T04:50:28.975Z,4.57
2018-06-18T04:53:00.634Z,4.37
2018-06-18T04:55:32.177Z,3.60
2018-06-18T04:58:03.821Z,3.70
2018-06-18T05:01:42.581Z,3.80
2018-06-18T05:04:14.169Z,3.33
2018-06-18T05:06:45.393Z,4.13
2018-06-18T05:09:24.563Z,3.97
2018-06-18T05:11:56.243Z,3.43
2018-06-18T05:14:28.203Z,3.00
2018-06-18T05:16:59.924Z,3.30
2018-06-18T05:19:31.585Z,3.97
2018-06-18T05:22:03.204Z,3.00
2018-06-18T05:24:34.852Z,6.00
2018-06-18T05:27:10.074Z,4.33
2018-06-18T05:29:41.864Z,3.87
2018-06-18T05:32:13.524Z,3.57
2018-06-18T05:34:45.316Z,4.20
2018-06-18T05:37:21.984Z,4.83
2018-06-18T05:39:53.291Z,4.57
2018-06-18T05:42:24.779Z,6.20
2018-06-18T05:44:56.551Z,5.37
2018-06-18T05:47:28.332Z,5.77
2018-06-18T05:49:59.945Z,7.27
2018-06-18T05:52:31.771Z,7.63
2018-06-18T05:55:03.658Z,8.80
2018-06-18T05:57:35.045Z,9.40
2018-06-18T06:00:08.077Z,9.47
2018-06-18T06:02:39.764Z,9.80
2018-06-18T06:05:11.560Z,9.20
2018-06-18T06:07:43.164Z,8.87
2018-06-18T06:10:14.940Z,9.33
2018-06-18T06:12:46.669Z,9.67
2018-06-18T06:15:18.410Z,8.37
2018-06-18T06:17:50.304Z,8.27
2018-06-18T06:20:22.128Z,9.10
2018-06-18T06:22:53.964Z,9.87
2018-06-18T06:25:25.656Z,9.77
2018-06-18T06:27:57.505Z,8.87
2018-06-18T06:30:29.106Z,8.80
2018-06-18T06:33:00.779Z,8.77
2018-06-18T06:35:35.725Z,8.10
2018-06-18T06:38:07.481Z,9.63
2018-06-18T06:40:39.064Z,9.43
2018-06-18T06:43:11.744Z,9.50
2018-06-18T06:45:43.363Z,9.07
2018-06-18T06:48:14.960Z,8.17
2018-06-18T06:50:46.620Z,7.77
2018-06-18T06:53:18.296Z,8.87
2018-06-18T06:55:49.957Z,7.47
2018-06-18T06:58:22.296Z,6.93
2018-06-18T07:00:53.872Z,6.30
2018-06-18T07:03:25.532Z,6.10
2018-06-18T07:05:57.234Z,7.90
2018-06-18T07:08:29.018Z,8.17
2018-06-18T07:11:00.633Z,8.60
2018-06-18T07:13:32.439Z,8.50
2018-06-18T07:16:04.019Z,8.10
2018-06-18T07:18:35.944Z,6.67
2018-06-18T07:21:07.544Z,7.00
2018-06-18T07:23:39.324Z,6.80
2018-06-18T07:26:11.060Z,6.33
2018-06-18T07:28:42.695Z,6.53
2018-06-18T07:31:14.680Z,5.87
2018-06-18T07:33:46.384Z,6.23
2018-06-18T07:36:17.944Z,5.97
2018-06-18T07:38:49.653Z,7.03
2018-06-18T07:41:21.344Z,6.10
2018-06-18T07:43:53.068Z,5.30
2018-06-18T07:46:24.597Z,6.23
2018-06-18T07:48:56.308Z,5.13
2018-06-18T07:51:28.003Z,5.50
2018-06-18T07:53:59.656Z,5.30
2018-06-18T07:56:31.257Z,5.53
2018-06-18T07:59:02.957Z,5.83
2018-06-18T08:01:34.645Z,8.23
2018-06-18T08:04:06.527Z,7.43
2018-06-18T08:06:38.366Z,7.23
2018-06-18T08:09:13.072Z,7.17
2018-06-18T08:11:44.284Z,6.10
2018-06-18T08:14:15.717Z,7.87
2018-06-18T08:16:47.657Z,7.90
2018-06-18T08:19:19.459Z,9.10
2018-06-18T08:21:51.010Z,8.20
2018-06-18T08:24:22.808Z,7.07
2018-06-18T08:26:54.331Z,7.03
2018-06-18T08:29:25.747Z,7.53
2018-06-18T08:31:57.329Z,5.40
2018-06-18T08:34:28.998Z,5.50
2018-06-18T08:37:00.145Z,7.17
2018-06-18T08:39:31.617Z,7.03
2018-06-18T08:42:03.224Z,5.30
2018-06-18T08:44:35.088Z,5.90
2018-06-18T08:47:07.078Z,5.03
2018-06-18T08:49:43.471Z,6.13
2018-06-18T08:52:20.017Z,6.03
2018-06-18T08:54:56.412Z,5.97
2018-06-18T08:57:32.824Z,4.70
2018-06-18T09:00:09.337Z,5.70
2018-06-18T09:02:46.144Z,6.23
2018-06-18T09:05:21.864Z,4.53
2018-06-18T09:07:54.664Z,4.93
2018-06-18T09:10:26.341Z,4.63
2018-06-18T09:12:57.638Z,4.47
2018-06-18T09:15:29.104Z,7.40
2018-06-18T09:18:01.021Z,4.33
2018-06-18T09:20:32.727Z,4.70
2018-06-18T09:23:09.048Z,3.53
2018-06-18T09:25:58.580Z,4.97
2018-06-18T09:28:31.164Z,3.97
2018-06-18T09:31:02.845Z,7.53
2018-06-18T09:33:34.445Z,5.63
2018-06-18T09:36:07.047Z,6.03
2018-06-18T09:38:38.350Z,6.77
2018-06-18T09:41:09.797Z,5.50
2018-06-18T09:43:41.487Z,7.70
2018-06-18T09:46:13.204Z,6.83
2018-06-18T09:49:55.493Z,5.87
2018-06-18T09:52:32.536Z,5.70
2018-06-18T09:55:09.344Z,8.30
2018-06-18T09:57:46.076Z,7.00
2018-06-18T10:00:39.432Z,6.87
2018-06-18T10:03:11.145Z,7.77
2018-06-18T10:05:42.784Z,7.93
2018-06-18T10:08:14.483Z,9.17
2018-06-18T10:10:46.457Z,7.27
2018-06-18T10:13:17.947Z,8.67
2018-06-18T10:15:49.484Z,5.40
2018-06-18T10:18:21.638Z,4.53
2018-06-18T10:20:53.445Z,5.70
2018-06-18T10:23:24.751Z,5.10
2018-06-18T10:25:56.736Z,7.67
2018-06-18T10:28:28.412Z,7.50
2018-06-18T10:31:00.019Z,7.87
2018-06-18T10:33:36.819Z,7.50
2018-06-18T10:36:13.534Z,7.30
2018-06-18T10:38:50.080Z,7.20
2018-06-18T10:41:26.640Z,7.30
2018-06-18T10:43:58.478Z,8.00
2018-06-18T10:46:30.221Z,7.30
2018-06-18T10:49:01.980Z,7.10
2018-06-18T10:51:33.589Z,7.40
2018-06-18T10:54:05.292Z,6.03
2018-06-18T10:56:37.211Z,7.53
2018-06-18T10:59:08.466Z,7.07
2018-06-18T11:01:39.526Z,6.83
2018-06-18T11:04:15.767Z,6.47
2018-06-18T11:06:46.773Z,7.10
2018-06-18T11:09:18.254Z,6.73
2018-06-18T11:11:49.818Z,6.80
2018-06-18T11:14:20.832Z,6.03
2018-06-18T11:16:57.651Z,6.57
2018-06-18T11:19:34.192Z,7.43
2018-06-18T11:22:07.432Z,6.00
2018-06-18T11:24:44.175Z,6.60
2018-06-18T11:27:15.652Z,6.33
2018-06-18T11:29:47.140Z,7.17
2018-06-18T11:32:18.383Z,6.50
2018-06-18T11:34:49.473Z,7.70
2018-06-18T11:37:20.924Z,5.43
2018-06-18T11:39:52.153Z,5.73
2018-06-18T11:42:23.373Z,6.33
2018-06-18T11:44:54.827Z,6.87
2018-06-18T11:47:26.436Z,7.23
2018-06-18T11:49:58.168Z,6.73
2018-06-18T11:52:29.988Z,5.10
2018-06-18T11:55:01.689Z,4.93
2018-06-18T11:57:33.585Z,7.57
2018-06-18T12:00:10.586Z,5.13
2018-06-18T12:02:47.417Z,4.80
2018-06-18T12:05:24.167Z,6.27
2018-06-18T12:08:00.256Z,7.13
2018-06-18T12:10:31.665Z,5.83
2018-06-18T12:13:03.552Z,7.37
2018-06-18T12:15:34.795Z,5.40
2018-06-18T12:18:06.405Z,6.93
2018-06-18T12:20:37.951Z,7.00
2018-06-18T12:23:09.557Z,7.40
2018-06-18T12:25:41.456Z,4.80
2018-06-18T12:28:13.120Z,6.47
2018-06-18T12:30:44.723Z,4.93
2018-06-18T12:33:16.433Z,5.63
2018-06-18T12:35:47.730Z,5.57
2018-06-18T12:38:19.132Z,5.30
2018-06-18T12:40:50.764Z,5.43
2018-06-18T12:43:25.388Z,3.90
2018-06-18T12:48:04.644Z,3.70
2018-06-18T12:50:41.241Z,4.57
2018-06-18T12:53:18.152Z,5.13
2018-06-18T12:55:54.919Z,5.13
2018-06-18T12:58:26.628Z,4.13
2018-06-18T13:00:58.284Z,3.73
2018-06-18T13:03:30.212Z,4.40
2018-06-18T13:06:01.860Z,3.97
2018-06-18T13:08:33.544Z,4.50
2018-06-18T13:11:04.791Z,5.27
2018-06-18T13:13:36.260Z,4.00
2018-06-18T13:16:08.040Z,5.07
2018-06-18T13:18:39.976Z,4.97
2018-06-18T13:21:11.685Z,4.10
2018-06-18T13:23:42.855Z,4.40
2018-06-18T13:26:14.502Z,4.07
2018-06-18T13:28:46.096Z,5.43
2018-06-18T13:31:17.435Z,4.90
2018-06-18T13:33:49.185Z,4.50
2018-06-18T13:36:20.837Z,7.77
2018-06-18T13:38:58.043Z,3.33
2018-06-18T13:42:34.598Z,4.73
2018-06-18T13:45:13.256Z,3.60
2018-06-18T13:47:50.262Z,3.83
2018-06-18T13:50:21.963Z,3.97
2018-06-18T13:52:53.646Z,4.23
2018-06-18T13:55:24.888Z,3.50
2018-06-18T13:57:56.202Z,3.87
2018-06-18T14:00:27.904Z,4.83
2018-06-18T14:02:59.565Z,5.67
2018-06-18T14:05:30.866Z,5.33
2018-06-18T14:08:02.259Z,4.63
2018-06-18T14:10:33.987Z,3.77
2018-06-18T14:13:06.199Z,4.57
2018-06-18T14:15:37.895Z,3.97
2018-06-18T14:18:09.465Z,5.13
2018-06-18T14:20:41.137Z,4.13
2018-06-18T14:23:13.098Z,3.80
2018-06-18T14:25:44.856Z,6.43
2018-06-18T14:28:18.159Z,3.50
2018-06-18T14:30:54.919Z,4.13
2018-06-18T14:33:31.619Z,3.63
2018-06-18T14:36:09.255Z,4.00
2018-06-18T14:38:46.285Z,7.13
2018-06-18T14:41:17.937Z,5.93
2018-06-18T14:43:49.335Z,3.57
2018-06-18T14:46:20.932Z,2.77
2018-06-18T14:48:52.711Z,2.60
2018-06-18T14:51:25.428Z,3.63
2018-06-18T14:53:57.136Z,4.53
2018-06-18T14:56:42.831Z,3.27
2018-06-18T14:59:30.854Z,5.23
2018-06-18T15:02:03.383Z,3.70
2018-06-18T15:04:35.077Z,3.37
2018-06-18T15:07:07.109Z,3.37
2018-06-18T15:09:40.025Z,5.20
2018-06-18T15:12:19.434Z,3.47
2018-06-18T15:14:56.897Z,4.80
2018-06-18T15:17:30.192Z,5.17
2018-06-18T15:20:02.326Z,4.10
2018-06-18T15:22:34.594Z,5.57
2018-06-18T15:25:14.035Z,6.93
2018-06-18T15:27:46.695Z,4.20
2018-06-18T15:30:17.901Z,6.67
2018-06-18T15:32:51.316Z,4.30
2018-06-18T15:35:24.523Z,5.47
2018-06-18T15:37:56.284Z,6.67
2018-06-18T15:40:27.879Z,4.77
2018-06-18T15:43:05.247Z,5.83
2018-06-18T15:45:36.496Z,6.40
2018-06-18T15:48:08.015Z,7.27
2018-06-18T15:50:39.596Z,5.60
2018-06-18T15:53:10.821Z,3.87
2018-06-18T15:55:42.184Z,5.53
2018-06-18T15:58:13.883Z,5.10
2018-06-18T16:00:45.516Z,3.13
2018-06-18T16:03:17.008Z,4.97
2018-06-18T16:05:48.664Z,5.00
2018-06-18T16:08:20.312Z,5.43
2018-06-18T16:10:52.118Z,3.67
2018-06-18T16:13:23.984Z,5.27
2018-06-18T16:15:55.617Z,3.53
2018-06-18T16:18:30.109Z,7.70
2018-06-18T16:21:10.987Z,5.30
2018-06-18T16:23:48.653Z,4.53
2018-06-18T16:26:28.757Z,3.80
2018-06-18T16:29:01.681Z,3.23
2018-06-18T16:31:39.956Z,5.27
2018-06-18T16:34:12.510Z,4.70
2018-06-18T16:36:44.295Z,4.50
2018-06-18T16:39:15.512Z,5.60
2018-06-18T16:41:47.125Z,3.20
2018-06-18T16:44:18.776Z,5.93
2018-06-18T16:46:49.924Z,6.07
2018-06-18T16:49:21.320Z,5.67
2018-06-18T16:51:52.959Z,4.33
2018-06-18T16:54:24.427Z,7.03
2018-06-18T16:56:56.264Z,5.97
2018-06-18T16:59:27.931Z,4.73
2018-06-18T17:01:59.564Z,3.60
2018-06-18T17:04:31.377Z,5.13
2018-06-18T17:07:03.021Z,6.90
2018-06-18T17:09:34.241Z,4.37
2018-06-18T17:12:05.849Z,4.20
2018-06-18T17:14:37.038Z,5.87
2018-06-18T17:17:08.440Z,10.03
2018-06-18T17:19:39.692Z,6.50
2018-06-18T17:22:11.151Z,5.20
2018-06-18T17:24:43.038Z,5.83
2018-06-18T17:27:14.823Z,4.57
2018-06-18T17:29:46.591Z,7.20
2018-06-18T17:32:18.242Z,4.53
2018-06-18T17:34:50.066Z,4.73
2018-06-18T17:37:21.704Z,5.27
2018-06-18T17:39:53.308Z,4.10
2018-06-18T17:42:24.915Z,5.77
2018-06-18T17:44:56.658Z,5.37
2018-06-18T17:47:28.281Z,4.70
2018-06-18T17:49:59.395Z,7.77
2018-06-18T17:52:30.995Z,4.30
2018-06-18T17:55:02.311Z,6.10
2018-06-18T17:57:34.280Z,4.73
2018-06-18T18:00:05.795Z,4.83
2018-06-18T18:02:37.260Z,6.80
2018-06-18T18:05:08.985Z,4.23
2018-06-18T18:07:41.549Z,7.77
2018-06-18T18:10:13.155Z,4.47
2018-06-18T18:12:44.816Z,4.17
2018-06-18T18:15:16.891Z,5.00
2018-06-18T18:17:48.597Z,3.30
2018-06-18T18:20:20.288Z,5.97
2018-06-18T18:22:51.504Z,3.63
2018-06-18T18:25:22.995Z,6.07
2018-06-18T18:27:54.728Z,4.83
2018-06-18T18:30:26.452Z,4.97
2018-06-18T18:32:57.671Z,3.20
2018-06-18T18:35:29.172Z,3.53
2018-06-18T18:38:00.806Z,4.70
2018-06-18T18:40:32.448Z,5.20
2018-06-18T18:43:03.844Z,5.30
2018-06-18T18:45:35.944Z,3.73
2018-06-18T18:48:07.173Z,4.47
2018-06-18T18:50:38.296Z,7.87
2018-06-18T18:53:09.808Z,5.50
2018-06-18T18:55:53.550Z,6.40
2018-06-18T18:58:54.496Z,5.03
2018-06-18T19:01:27.027Z,3.93
2018-06-18T19:04:02.494Z,5.77
2018-06-18T19:06:34.238Z,8.97
2018-06-18T19:09:09.049Z,6.23
2018-06-18T19:11:40.699Z,4.97
2018-06-18T19:14:12.285Z,3.93
2018-06-18T19:16:43.694Z,4.50
2018-06-18T19:19:16.341Z,4.10
2018-06-18T19:21:48.017Z,5.93
2018-06-18T19:24:19.885Z,3.77
2018-06-18T19:26:52.533Z,3.30
2018-06-18T19:29:24.512Z,4.53
2018-06-18T19:31:56.201Z,4.00
2018-06-18T19:34:29.285Z,5.97
2018-06-18T19:37:01.553Z,6.90
2018-06-18T19:39:37.469Z,11.43
2018-06-18T19:42:10.038Z,8.27
2018-06-18T19:44:41.864Z,6.23
2018-06-18T19:47:50.382Z,4.33
2018-06-18T19:50:21.928Z,5.57
2018-06-18T19:52:54.272Z,4.20
2018-06-18T19:55:29.744Z,3.47
2018-06-18T19:58:01.485Z,3.43
2018-06-18T20:00:52.385Z,5.87
2018-06-18T20:03:23.865Z,4.80
2018-06-18T20:05:55.646Z,7.37
2018-06-18T20:08:30.323Z,6.93
2018-06-18T20:11:02.058Z,5.27
2018-06-18T20:13:33.635Z,6.53
2018-06-18T20:16:04.679Z,4.20
2018-06-18T20:18:36.182Z,6.97
2018-06-18T20:21:07.452Z,4.47
2018-06-18T20:23:39.004Z,5.60
2018-06-18T20:26:17.220Z,3.67
2018-06-18T20:28:48.964Z,3.17
2018-06-18T20:31:20.260Z,7.03
2018-06-18T20:33:55.657Z,4.90
2018-06-18T20:36:28.745Z,4.60
2018-06-18T20:39:00.600Z,5.50
2018-06-18T20:41:32.261Z,6.10
2018-06-18T20:44:24.722Z,5.07
2018-06-18T20:46:55.992Z,4.13
2018-06-18T20:49:27.533Z,4.10
2018-06-18T20:51:59.181Z,3.87
2018-06-18T20:54:30.822Z,4.57
2018-06-18T20:57:02.492Z,5.20
2018-06-18T20:59:34.252Z,5.87
2018-06-18T21:02:05.995Z,6.20
2018-06-18T21:04:37.921Z,4.27
2018-06-18T21:07:09.140Z,8.30
2018-06-18T21:09:40.733Z,3.50
2018-06-18T21:12:12.370Z,4.27
2018-06-18T21:14:43.677Z,5.90
2018-06-18T21:17:15.218Z,3.93
2018-06-18T21:19:46.852Z,7.97
2018-06-18T21:22:18.496Z,3.33
2018-06-18T21:24:50.204Z,4.03
2018-06-18T21:27:21.816Z,5.00
2018-06-18T21:29:53.519Z,5.80
2018-06-18T21:32:25.164Z,5.33
2018-06-18T21:34:56.756Z,3.90
2018-06-18T21:37:28.107Z,5.60
2018-06-18T21:39:59.540Z,4.77
2018-06-18T21:42:30.849Z,4.20
2018-06-18T21:45:18.963Z,4.20
2018-06-18T21:47:50.633Z,4.03
2018-06-18T21:50:22.425Z,3.80
2018-06-18T21:52:54.079Z,5.30
2018-06-18T21:55:25.358Z,4.97
2018-06-18T21:57:56.830Z,4.10
2018-06-18T22:00:35.689Z,4.10
2018-06-18T22:03:07.681Z,4.73
2018-06-18T22:05:38.962Z,3.77
2018-06-18T22:08:12.878Z,4.87
2018-06-18T22:10:44.792Z,5.33
2018-06-18T22:13:16.424Z,5.13
2018-06-18T22:15:48.097Z,5.30
2018-06-18T22:18:19.311Z,5.23
2018-06-18T22:20:50.860Z,5.23
2018-06-18T22:23:22.476Z,5.47
2018-06-18T22:25:54.265Z,4.50
2018-06-18T22:28:32.004Z,4.17
2018-06-18T22:31:04.144Z,5.90
2018-06-18T22:33:35.952Z,4.10
2018-06-18T22:36:06.951Z,5.00
2018-06-18T22:38:38.375Z,5.47
2018-06-18T22:41:10.045Z,3.93
2018-06-18T22:43:41.743Z,4.23
2018-06-18T22:46:12.997Z,4.07
2018-06-18T22:48:43.988Z,4.80
2018-06-18T22:51:15.553Z,4.73
2018-06-18T22:53:47.200Z,4.57
2018-06-18T22:56:18.815Z,4.67
2018-06-18T22:58:50.424Z,4.07
2018-06-18T23:01:22.092Z,4.20
2018-06-18T23:03:53.410Z,4.23
2018-06-18T23:06:24.500Z,3.77
2018-06-18T23:08:55.941Z,4.07
2018-06-18T23:11:27.633Z,4.10
2018-06-18T23:13:59.263Z,3.77
2018-06-18T23:16:30.472Z,4.27
2018-06-18T23:19:01.893Z,5.60
2018-06-18T23:21:33.657Z,4.27
2018-06-18T23:24:06.184Z,4.83
2018-06-18T23:26:37.900Z,4.57
2018-06-18T23:29:12.941Z,4.20
2018-06-18T23:31:45.553Z,4.37
2018-06-18T23:34:17.165Z,3.87
2018-06-18T23:36:49.067Z,6.97
2018-06-18T23:39:20.225Z,4.03
2018-06-18T23:41:55.036Z,4.10
2018-06-18T23:44:26.644Z,4.73
2018-06-18T23:46:58.256Z,4.20
2018-06-18T23:49:29.793Z,4.90
2018-06-18T23:52:01.521Z,5.10
2018-06-18T23:54:32.900Z,7.63
2018-06-18T23:57:04.400Z,4.70
2018-06-18T23:59:36.204Z,4.73
